createdAt,value
2022-09-27T00:01:31.329Z,48.7
2022-09-27T00:03:38.296Z,35.5
2022-09-27T00:05:42.310Z,36.1
2022-09-27T00:07:46.342Z,36.3
2022-09-27T00:09:50.350Z,33.7
2022-09-27T00:11:54.354Z,31.7
2022-09-27T00:13:58.382Z,27
2022-09-27T00:16:02.469Z,30.4
2022-09-27T00:18:09.422Z,24.7
2022-09-27T00:20:13.470Z,23.3
2022-09-27T00:25:24.993Z,22.7
2022-09-27T00:27:29.125Z,22.2
2022-09-27T00:29:33.015Z,23
2022-09-27T00:31:40.125Z,26.1
2022-09-27T00:33:44.053Z,25.4
2022-09-27T00:35:48.072Z,26.7
2022-09-27T00:37:52.084Z,26.7
2022-09-27T00:39:56.102Z,28.6
2022-09-27T00:42:00.112Z,28.3
2022-09-27T00:44:04.702Z,32.7
2022-09-27T00:46:11.738Z,33.8
2022-09-27T00:48:15.987Z,33.5
2022-09-27T00:52:23.752Z,34.1
2022-09-27T00:54:27.753Z,35.7
2022-09-27T00:56:31.751Z,31.1
2022-09-27T00:58:35.934Z,32.9
2022-09-27T01:00:42.796Z,38.8
2022-09-27T01:02:46.843Z,33.5
2022-09-27T01:04:50.799Z,30.8
2022-09-27T01:08:58.805Z,34
2022-09-27T01:11:02.836Z,36.6
2022-09-27T01:13:06.818Z,35.5
2022-09-27T01:15:13.849Z,41.1
2022-09-27T01:17:17.866Z,39.6
2022-09-27T01:19:21.861Z,33.5
2022-09-27T01:20:25.356Z,37.6
2022-09-27T01:22:29.387Z,35.2
2022-09-27T01:24:33.381Z,35.8
2022-09-27T01:26:37.370Z,39.2
2022-09-27T01:30:48.471Z,40.4
2022-09-27T01:32:52.383Z,44.1
2022-09-27T01:34:56.403Z,47.6
2022-09-27T01:37:00.468Z,50.6
2022-09-27T01:41:08.387Z,55.1
2022-09-27T01:43:15.405Z,49.7
2022-09-27T01:45:19.435Z,50.9
2022-09-27T01:53:35.417Z,40.2
2022-09-27T01:55:39.415Z,38
2022-09-27T01:59:50.453Z,33.5
2022-09-27T02:03:58.440Z,33.1
2022-09-27T02:06:02.431Z,34.7
2022-09-27T02:10:10.437Z,42
2022-09-27T02:14:21.406Z,49.2
2022-09-27T02:17:28.916Z,60.8
2022-09-27T02:19:32.899Z,65.5
2022-09-27T02:21:36.887Z,71.6
2022-09-27T02:23:40.879Z,76.1
2022-09-27T02:25:47.886Z,86.6
2022-09-27T02:27:51.869Z,84.4
2022-09-27T02:29:55.862Z,93.2
2022-09-27T02:31:59.831Z,92.1
2022-09-27T02:34:03.852Z,90.6
2022-09-27T02:36:15.213Z,100
2022-09-27T02:38:11.811Z,97.6
2022-09-27T02:40:18.874Z,107
2022-09-27T02:42:22.795Z,104.4
2022-09-27T02:45:46.635Z,96.2
2022-09-27T02:46:30.851Z,109.5
2022-09-27T02:48:34.768Z,110.1
2022-09-27T02:50:38.754Z,110.4
2022-09-27T02:52:42.733Z,111.5
2022-09-27T02:54:49.732Z,118.7
2022-09-27T02:56:53.713Z,113.5
2022-09-27T02:58:57.696Z,119.7
2022-09-27T03:01:01.783Z,123.3
2022-09-27T03:03:05.778Z,121.1
2022-09-27T03:05:10.342Z,126.6
2022-09-27T03:07:14.305Z,124.9
2022-09-27T03:09:21.309Z,133
2022-09-27T03:11:25.305Z,130.6
2022-09-27T03:13:29.283Z,131
2022-09-27T03:20:01.251Z,137.8
2022-09-27T03:26:16.295Z,133.3
2022-09-27T03:28:20.291Z,139.3
2022-09-27T03:30:24.254Z,135.9
2022-09-27T03:32:28.210Z,134.5
2022-09-27T03:34:32.221Z,130.8
2022-09-27T03:36:39.199Z,139.8
2022-09-27T03:38:43.189Z,143.3
2022-09-27T03:40:47.233Z,142.2
2022-09-27T03:42:51.127Z,138.2
2022-09-27T03:44:55.098Z,141.3
2022-09-27T03:46:59.088Z,133.9
2022-09-27T03:49:03.055Z,125.6
2022-09-27T03:51:10.052Z,136.9
2022-09-27T03:53:14.002Z,136.8
2022-09-27T03:57:21.965Z,140.3
2022-09-27T04:01:30.076Z,129.7
2022-09-27T04:03:33.875Z,138.5
2022-09-27T04:05:40.852Z,150.9
2022-09-27T04:07:44.862Z,148.6
2022-09-27T04:09:48.862Z,144.4
2022-09-27T04:10:52.301Z,151.1
2022-09-27T04:17:04.287Z,156.8
2022-09-27T04:25:23.075Z,165.9
2022-09-27T04:31:36.563Z,161.5
2022-09-27T04:33:43.505Z,166
2022-09-27T04:35:47.439Z,175.2
2022-09-27T04:37:51.408Z,179.4
2022-09-27T04:39:55.354Z,189.6
2022-09-27T04:44:56.481Z,202.2
2022-09-27T04:46:07.329Z,203.7
2022-09-27T04:48:14.221Z,209.4
2022-09-27T04:50:18.181Z,213.1
2022-09-27T04:54:26.119Z,210.7
2022-09-27T04:58:34.029Z,209
2022-09-27T05:00:37.995Z,195.5
2022-09-27T05:02:45.057Z,192.6
2022-09-27T05:04:48.959Z,185
2022-09-27T05:06:56.914Z,182.6
2022-09-27T05:07:56.397Z,191.8
2022-09-27T05:10:00.381Z,184.9
2022-09-27T05:12:04.351Z,178
2022-09-27T05:14:08.317Z,169.5
2022-09-27T05:16:15.333Z,160.6
2022-09-27T05:18:19.247Z,152.8
2022-09-27T05:20:23.197Z,147
2022-09-27T05:24:31.113Z,136.3
2022-09-27T05:26:35.076Z,138
2022-09-27T05:28:39.065Z,138.8
2022-09-27T05:30:51.510Z,15.1
2022-09-27T05:32:49.988Z,14.3
2022-09-27T05:34:53.935Z,2.5
2022-09-27T05:36:57.895Z,7.8
2022-09-27T05:41:05.847Z,7.6
2022-09-27T05:45:16.758Z,1.2
2022-09-27T05:49:24.652Z,2.2
2022-09-27T05:55:36.515Z,1.9
2022-09-27T05:57:40.462Z,1.1
2022-09-27T05:59:47.433Z,4.9
2022-09-27T06:01:51.416Z,9.8
2022-09-27T06:03:55.335Z,4.7
2022-09-27T06:04:58.808Z,6.7
2022-09-27T06:07:02.756Z,3.4
2022-09-27T06:09:06.723Z,5.7
2022-09-27T06:11:10.667Z,14.8
2022-09-27T06:13:17.624Z,5
2022-09-27T06:15:21.591Z,4.6
2022-09-27T06:17:25.538Z,1.7
2022-09-27T06:19:29.508Z,3.2
2022-09-27T06:21:33.496Z,1.4
2022-09-27T06:23:37.431Z,3.5
2022-09-27T06:27:48.361Z,13.1
2022-09-27T06:29:52.333Z,1.4
2022-09-27T06:31:56.289Z,12.2
2022-09-27T06:36:04.286Z,2.6
2022-09-27T06:38:08.179Z,0.2
2022-09-27T06:40:12.165Z,9.6
2022-09-27T06:42:19.144Z,12.8
2022-09-27T06:44:23.107Z,15.6
2022-09-27T06:46:27.123Z,2.2
2022-09-27T06:48:31.098Z,7.1
2022-09-27T06:50:35.050Z,14.2
2022-09-27T06:52:39.017Z,2.5
2022-09-27T06:54:43.014Z,1.3
2022-09-27T06:58:53.984Z,4.9
2022-09-27T07:00:58.015Z,4.7
2022-09-27T07:05:26.412Z,11
2022-09-27T07:07:30.512Z,15.4
2022-09-27T07:13:45.379Z,5.4
2022-09-27T07:17:53.349Z,11.1
2022-09-27T07:19:57.699Z,16.8
2022-09-27T07:24:08.353Z,9.3
2022-09-27T07:26:12.352Z,10.1
2022-09-27T07:28:21.029Z,10.1
2022-09-27T07:30:20.333Z,7.9
2022-09-27T07:32:24.333Z,2.1
2022-09-27T07:34:28.342Z,8.4
2022-09-27T07:38:39.363Z,3.3
2022-09-27T07:40:43.429Z,4.2
2022-09-27T07:42:47.358Z,12.3
2022-09-27T07:44:51.357Z,10.8
2022-09-27T07:51:03.395Z,4.6
2022-09-27T07:53:10.437Z,9.1
2022-09-27T07:55:14.439Z,2.4
2022-09-27T07:57:18.475Z,1.5
2022-09-27T07:58:21.955Z,2.9
2022-09-27T08:00:25.974Z,1.9
2022-09-27T08:02:30.076Z,3.6
2022-09-27T08:04:34.015Z,2.9
2022-09-27T08:08:45.085Z,2.5
2022-09-27T08:10:49.089Z,14.6
2022-09-27T08:12:53.091Z,13.3
2022-09-27T08:23:16.203Z,4.5
2022-09-27T08:27:24.271Z,2.4
2022-09-27T08:29:28.300Z,2.3
2022-09-27T08:33:41.227Z,5.4
2022-09-27T08:35:43.414Z,2.3
2022-09-27T08:37:47.444Z,0.7
2022-09-27T08:39:51.494Z,6.5
2022-09-27T08:41:55.543Z,7.1
2022-09-27T08:43:59.580Z,1.9
2022-09-27T08:46:03.660Z,0.8
2022-09-27T08:48:07.666Z,5.9
2022-09-27T08:50:14.730Z,0.6
2022-09-27T08:54:22.839Z,0.3
2022-09-27T08:59:34.528Z,0.1
2022-09-27T09:03:45.602Z,1
2022-09-27T09:05:49.655Z,0.2
2022-09-27T09:07:53.704Z,1.8
2022-09-27T09:09:57.749Z,5
2022-09-27T09:12:01.802Z,0.2
2022-09-27T09:18:16.952Z,0.2
2022-09-27T09:20:20.983Z,0.2
2022-09-27T09:22:25.040Z,0.2
2022-09-27T09:24:29.091Z,0.2
2022-09-27T09:26:33.139Z,0.2
2022-09-27T09:28:37.189Z,0
2022-09-27T09:30:41.261Z,0.8
2022-09-27T09:32:48.333Z,1.4
2022-09-27T09:34:52.370Z,0.5
2022-09-27T09:36:56.409Z,0.9
2022-09-27T09:39:00.451Z,0
2022-09-27T09:41:04.513Z,0.5
2022-09-27T09:43:08.548Z,1.2
2022-09-27T09:45:12.618Z,0.7
2022-09-27T09:51:27.798Z,0.4
2022-09-27T09:52:31.333Z,0.5
2022-09-27T09:54:35.394Z,0.2
2022-09-27T09:56:39.458Z,0
2022-09-27T09:58:43.499Z,0
2022-09-27T10:00:50.649Z,0.1
2022-09-27T10:02:54.657Z,2.3
2022-09-27T10:04:58.709Z,2.8
2022-09-27T10:09:06.836Z,2.4
2022-09-27T10:11:10.893Z,5.6
2022-09-27T10:13:14.942Z,8.1
2022-09-27T10:15:22.014Z,0.8
2022-09-27T10:17:26.080Z,1.4
2022-09-27T10:19:30.123Z,1.2
2022-09-27T10:21:34.183Z,1.6
2022-09-27T10:23:38.266Z,3.7
2022-09-27T10:25:42.305Z,1.5
2022-09-27T10:27:46.388Z,1.7
2022-09-27T10:31:59.109Z,2.9
2022-09-27T10:34:04.731Z,0.6
2022-09-27T10:36:08.802Z,0.5
2022-09-27T10:38:12.801Z,0.3
2022-09-27T10:40:16.927Z,1.6
2022-09-27T10:44:28.047Z,1.1
2022-09-27T10:48:36.159Z,0.2
2022-09-27T10:51:00.362Z,2.8
2022-09-27T10:53:04.337Z,1.5
2022-09-27T10:55:08.400Z,1.5
2022-09-27T10:57:15.488Z,3.9
2022-09-27T10:59:19.546Z,0.1
2022-09-27T11:01:23.669Z,4.1
2022-09-27T11:03:27.670Z,0.8
2022-09-27T11:05:31.717Z,0.5
2022-09-27T11:07:35.819Z,0.2
2022-09-27T11:09:39.856Z,2
2022-09-27T11:11:46.910Z,0.6
2022-09-27T11:13:50.973Z,1.9
2022-09-27T11:15:55.115Z,4.6
2022-09-27T11:17:59.091Z,0.2
2022-09-27T11:20:03.137Z,2.3
2022-09-27T11:22:07.219Z,0.4
2022-09-27T11:26:18.317Z,3
2022-09-27T11:28:22.394Z,0.1
2022-09-27T11:30:26.432Z,0.8
2022-09-27T11:32:30.486Z,0.1
2022-09-27T11:34:34.533Z,1.7
2022-09-27T11:36:38.566Z,0.2
2022-09-27T11:38:52.889Z,0.1
2022-09-27T11:40:49.709Z,0.2
2022-09-27T11:42:53.737Z,11.2
2022-09-27T11:45:19.817Z,1.8
2022-09-27T11:46:15.255Z,10.4
2022-09-27T11:48:05.449Z,0.7
2022-09-27T11:50:11.402Z,1.7
2022-09-27T11:52:13.491Z,1.3
2022-09-27T11:54:20.536Z,0.3
2022-09-27T11:56:24.592Z,0.2
2022-09-27T11:58:28.643Z,0.2
2022-09-27T12:00:32.714Z,3.3
2022-09-27T12:02:36.826Z,0.3
2022-09-27T12:04:40.829Z,0.9
2022-09-27T12:06:44.882Z,2.4
2022-09-27T12:08:51.963Z,7.5
2022-09-27T12:10:56.014Z,3.5
2022-09-27T12:13:00.053Z,4.5
2022-09-27T12:15:06.937Z,0.4
2022-09-27T12:17:08.158Z,0.3
2022-09-27T12:19:12.220Z,0.6
2022-09-27T12:21:16.278Z,0.2
2022-09-27T12:23:23.347Z,8.1
2022-09-27T12:25:27.391Z,3.3
2022-09-27T12:27:31.436Z,5.9
2022-09-27T12:31:39.568Z,1.8
2022-09-27T12:33:43.626Z,2.9
2022-09-27T12:35:47.679Z,0.4
2022-09-27T12:39:58.801Z,0.3
2022-09-27T12:42:02.888Z,1.2
2022-09-27T12:43:06.413Z,9.2
2022-09-27T12:45:11.021Z,2.2
2022-09-27T12:47:14.556Z,1.3
2022-09-27T12:49:18.599Z,0.8
2022-09-27T12:51:25.684Z,0.3
2022-09-27T12:53:29.744Z,0.2
2022-09-27T12:55:33.791Z,0.8
2022-09-27T13:05:57.123Z,3.3
2022-09-27T13:08:01.216Z,2.1
2022-09-27T13:12:09.330Z,3.8
2022-09-27T13:16:17.584Z,1.5
2022-09-27T13:18:21.509Z,0.4
2022-09-27T13:20:28.617Z,3.9
2022-09-27T13:22:32.657Z,3.6
2022-09-27T13:24:36.737Z,0.1
2022-09-27T13:26:40.815Z,0.1
2022-09-27T13:28:44.854Z,0.4
2022-09-27T13:30:48.917Z,0.5
2022-09-27T13:32:52.997Z,0.2
2022-09-27T13:35:00.106Z,0.8
2022-09-27T13:37:04.185Z,5.9
2022-09-27T13:39:08.227Z,0.1
2022-09-27T13:44:19.898Z,0.7
2022-09-27T13:48:31.048Z,0
2022-09-27T13:52:39.194Z,0.8
2022-09-27T13:56:47.290Z,0.2
2022-09-27T13:58:51.371Z,0.8
2022-09-27T14:00:55.550Z,3.7
2022-09-27T14:03:02.514Z,1.4
2022-09-27T14:05:06.571Z,2.5
2022-09-27T14:07:10.640Z,0.3
2022-09-27T14:09:14.698Z,0.1
2022-09-27T14:11:18.755Z,0
2022-09-27T14:13:22.837Z,0.3
2022-09-27T14:15:26.876Z,0.2
2022-09-27T14:17:33.936Z,0.1
2022-09-27T14:19:37.997Z,4.3
2022-09-27T14:21:42.047Z,0.5
2022-09-27T14:23:46.094Z,0.7
2022-09-27T14:25:50.161Z,0.6
2022-09-27T14:29:58.237Z,0
2022-09-27T14:38:37.712Z,0.3
2022-09-27T14:40:35.657Z,0.2
2022-09-27T14:42:39.799Z,0.7
2022-09-27T14:46:50.849Z,2.2
2022-09-27T14:48:54.816Z,0.2
2022-09-27T14:51:03.986Z,0.8
2022-09-27T14:53:02.900Z,2.4
2022-09-27T14:57:10.975Z,0.1
2022-09-27T14:59:18.172Z,0.6
2022-09-27T15:01:22.088Z,2.3
2022-09-27T15:03:27.285Z,1.2
2022-09-27T15:05:30.181Z,4.3
2022-09-27T15:09:38.260Z,1.5
2022-09-27T15:11:42.310Z,0.4
2022-09-27T15:13:49.349Z,0.8
2022-09-27T15:15:53.433Z,0.4
2022-09-27T15:17:57.449Z,0.3
2022-09-27T15:20:01.528Z,1.1
2022-09-27T15:24:09.555Z,0.7
2022-09-27T15:26:13.587Z,0.9
2022-09-27T15:28:20.666Z,2.8
2022-09-27T15:30:27.763Z,3.3
2022-09-27T15:32:28.771Z,5.2
2022-09-27T15:33:32.388Z,0.8
2022-09-27T15:35:36.304Z,0.9
2022-09-27T15:43:55.467Z,0.8
2022-09-27T15:45:59.525Z,1.8
2022-09-27T15:50:07.687Z,1.1
2022-09-27T15:52:11.637Z,3.2
2022-09-27T15:54:15.679Z,2.3
2022-09-27T15:56:22.728Z,2.4
2022-09-27T15:58:26.766Z,9.2
2022-09-27T16:00:30.881Z,3.5
2022-09-27T16:02:34.914Z,5.7
2022-09-27T16:04:38.884Z,2
2022-09-27T16:06:42.948Z,4
2022-09-27T16:08:46.990Z,3.5
2022-09-27T16:12:58.071Z,1.1
2022-09-27T16:19:10.191Z,4.7
2022-09-27T16:21:14.225Z,1
2022-09-27T16:23:18.275Z,1.9
2022-09-27T16:25:25.321Z,6.3
2022-09-27T16:27:29.415Z,1.1
2022-09-27T16:29:33.382Z,0.7
2022-09-27T16:30:38.480Z,1.3
2022-09-27T16:32:42.490Z,20.6
2022-09-27T16:34:46.509Z,1.9
2022-09-27T16:36:50.544Z,8.2
2022-09-27T16:38:57.596Z,2
2022-09-27T16:41:01.394Z,3.6
2022-09-27T16:43:05.397Z,1.7
2022-09-27T16:45:13.560Z,0.6
2022-09-27T16:47:13.427Z,1.7
2022-09-27T16:49:17.453Z,1.6
2022-09-27T16:51:21.498Z,1.8
2022-09-27T16:53:28.506Z,4.8
2022-09-27T16:55:32.548Z,4.1
2022-09-27T16:57:36.551Z,5.4
2022-09-27T16:59:40.567Z,4.1
2022-09-27T17:01:44.654Z,3.5
2022-09-27T17:03:48.630Z,3.7
2022-09-27T17:05:52.636Z,5.7
2022-09-27T17:07:59.675Z,3.7
2022-09-27T17:10:03.693Z,1.8
2022-09-27T17:12:11.280Z,2.7
2022-09-27T17:14:11.837Z,1.4
2022-09-27T17:16:15.834Z,0.9
2022-09-27T17:18:19.766Z,4.4
2022-09-27T17:22:30.804Z,2.2
2022-09-27T17:27:42.352Z,3
2022-09-27T17:31:50.429Z,12.6
2022-09-27T17:33:57.822Z,6.3
2022-09-27T17:36:01.449Z,4.7
2022-09-27T17:38:05.461Z,4.8
2022-09-27T17:40:09.470Z,2.5
2022-09-27T17:42:13.493Z,16.2
2022-09-27T17:44:17.630Z,9.5
2022-09-27T17:46:21.565Z,2.6
2022-09-27T17:48:25.524Z,5.2
2022-09-27T17:50:32.539Z,2.2
2022-09-27T17:52:36.541Z,16.1
2022-09-27T17:54:40.568Z,3
2022-09-27T17:56:44.581Z,1.9
2022-09-27T17:58:48.580Z,1.2
2022-09-27T18:00:52.623Z,1.8
2022-09-27T18:02:56.651Z,12
2022-09-27T18:05:03.658Z,11.2
2022-09-27T18:07:07.708Z,5.2
2022-09-27T18:09:11.719Z,3.8
2022-09-27T18:11:15.723Z,3.6
2022-09-27T18:13:19.771Z,4.4
2022-09-27T18:15:23.895Z,7.3
2022-09-27T18:17:27.813Z,8.4
2022-09-27T18:19:34.863Z,2.4
2022-09-27T18:23:42.908Z,4.7
2022-09-27T18:28:05.097Z,6.7
2022-09-27T18:30:09.161Z,9.5
2022-09-27T18:34:20.160Z,8.8
2022-09-27T18:36:24.223Z,2.7
2022-09-27T18:38:28.218Z,2.3
2022-09-27T18:40:51.943Z,3.5
2022-09-27T18:42:36.255Z,2.2
2022-09-27T18:44:40.276Z,4.7
2022-09-27T18:46:47.424Z,3.4
2022-09-27T18:48:51.325Z,6.7
2022-09-27T18:50:55.381Z,3.6
2022-09-27T18:55:03.406Z,5.1
2022-09-27T18:57:07.439Z,6.2
2022-09-27T18:59:11.582Z,7.1
2022-09-27T19:01:18.756Z,2.9
2022-09-27T19:03:22.492Z,2.6
2022-09-27T19:05:26.509Z,3.1
2022-09-27T19:07:30.508Z,2
2022-09-27T19:09:34.516Z,3.8
2022-09-27T19:11:38.527Z,3.3
2022-09-27T19:13:50.891Z,2.9
2022-09-27T19:17:53.557Z,4.7
2022-09-27T19:19:57.563Z,4.9
2022-09-27T19:21:01.063Z,4
2022-09-27T19:23:05.089Z,9.6
2022-09-27T19:27:13.071Z,2.9
2022-09-27T19:31:24.180Z,3.6
2022-09-27T19:37:36.127Z,4.9
2022-09-27T19:39:40.165Z,17.1
2022-09-27T19:41:44.076Z,6.2
2022-09-27T19:43:51.086Z,8.2
2022-09-27T19:45:55.113Z,14.6
2022-09-27T19:47:59.098Z,7.3
2022-09-27T19:50:03.093Z,7.6
2022-09-27T19:52:07.095Z,6.3
2022-09-27T19:54:11.078Z,8.6
2022-09-27T19:56:15.074Z,6.6
2022-09-27T19:58:22.073Z,8.7
2022-09-27T20:00:26.065Z,12.1
2022-09-27T20:02:30.225Z,11.9
2022-09-27T20:04:34.055Z,16.8
2022-09-27T20:06:38.041Z,12.7
2022-09-27T20:08:42.056Z,16.4
2022-09-27T20:10:46.017Z,11.9
2022-09-27T20:12:53.028Z,14.6
2022-09-27T20:14:57.024Z,12.4
2022-09-27T20:17:01.013Z,19.2
2022-09-27T20:18:08.968Z,17.2
2022-09-27T20:22:12.493Z,15.3
2022-09-27T20:24:16.491Z,13.9
2022-09-27T20:26:23.493Z,15.9
2022-09-27T20:30:31.497Z,11.6
2022-09-27T20:32:35.531Z,14.6
2022-09-27T20:34:39.501Z,16.7
2022-09-27T20:36:43.462Z,21.4
2022-09-27T20:38:47.450Z,12.4
2022-09-27T20:40:54.490Z,17.5
2022-09-27T20:45:02.446Z,20.1
2022-09-27T20:47:06.526Z,15
2022-09-27T20:51:14.451Z,18
2022-09-27T20:57:46.630Z,23.2
2022-09-27T20:59:33.439Z,15.7
2022-09-27T21:12:00.384Z,21.5
2022-09-27T21:15:07.885Z,31.8
2022-09-27T21:17:11.863Z,37.3
2022-09-27T21:19:15.869Z,14.7
2022-09-27T21:21:19.873Z,15.9
2022-09-27T21:23:26.856Z,17.1
2022-09-27T21:25:30.849Z,22.7
2022-09-27T21:27:34.837Z,31.2
2022-09-27T21:29:38.824Z,28.2
2022-09-27T21:31:42.859Z,17.8
2022-09-27T21:33:46.797Z,20.9
2022-09-27T21:35:50.785Z,22.8
2022-09-27T21:37:57.791Z,44.3
2022-09-27T21:40:01.790Z,26.9
2022-09-27T21:42:05.769Z,18.9
2022-09-27T21:44:09.741Z,26.9
2022-09-27T21:46:13.817Z,31.2
2022-09-27T21:48:17.739Z,24.8
2022-09-27T21:50:21.717Z,28.7
2022-09-27T21:52:28.733Z,21.9
2022-09-27T21:54:32.730Z,21.6
2022-09-27T21:56:36.708Z,23.7
2022-09-27T21:58:40.700Z,31.8
2022-09-27T22:00:44.712Z,30.9
2022-09-27T22:02:48.689Z,29.8
2022-09-27T22:04:52.651Z,39.1
2022-09-27T22:06:59.682Z,32.6
2022-09-27T22:09:03.660Z,23.2
2022-09-27T22:11:07.662Z,31.3
2022-09-27T22:13:31.811Z,32.2
2022-09-27T22:15:35.784Z,34.4
2022-09-27T22:17:39.757Z,31.2
2022-09-27T22:19:46.767Z,39.1
2022-09-27T22:21:50.782Z,27.3
2022-09-27T22:23:54.786Z,28.1
2022-09-27T22:25:58.754Z,24.6
2022-09-27T22:28:04.304Z,30.2
2022-09-27T22:30:08.258Z,36.1
2022-09-27T22:32:12.423Z,26.3
2022-09-27T22:36:23.225Z,31.2
2022-09-27T22:38:27.224Z,23.1
2022-09-27T22:40:31.262Z,27.6
2022-09-27T22:42:35.320Z,26.5
2022-09-27T22:44:39.167Z,29.7
2022-09-27T22:46:43.194Z,32.6
2022-09-27T22:48:50.167Z,34.6
2022-09-27T22:50:54.140Z,26.2
2022-09-27T22:55:02.171Z,28.1
2022-09-27T22:57:06.181Z,30.6
2022-09-27T22:59:10.160Z,36.1
2022-09-27T23:01:14.121Z,30.5
2022-09-27T23:03:21.199Z,29.9
2022-09-27T23:05:25.128Z,35.9
2022-09-27T23:08:32.591Z,36.8
2022-09-27T23:10:36.582Z,32.8
2022-09-27T23:12:40.554Z,31.9
2022-09-27T23:14:44.512Z,30.1
2022-09-27T23:16:51.500Z,30.3
2022-09-27T23:19:09.864Z,24.3
2022-09-27T23:20:59.447Z,26.9
2022-09-27T23:23:03.410Z,26.9
2022-09-27T23:25:07.381Z,30.6
2022-09-27T23:27:11.347Z,30.4
2022-09-27T23:29:15.312Z,33.8
2022-09-27T23:31:22.392Z,28
2022-09-27T23:33:26.261Z,34.3
2022-09-27T23:35:30.220Z,34.7
2022-09-27T23:37:34.165Z,31.4
2022-09-27T23:39:38.058Z,36.6
2022-09-27T23:41:42.025Z,33
2022-09-27T23:43:46.029Z,32.8
2022-09-27T23:45:52.958Z,36.9
2022-09-27T23:47:56.940Z,28.7
2022-09-27T23:50:00.897Z,31.5
2022-09-27T23:52:04.875Z,30.1
2022-09-27T23:54:08.870Z,36.4
2022-09-27T23:56:12.833Z,32.9
2022-09-27T23:58:16.793Z,36.7
